August 15, 2022

Time Code Weather Temp. Visibility Ceiling Wind METAR/SPECI
22:30
V
16 °C 10 km+ - 090° 090° 3 kt METAR LFLW 152030Z AUTO 09003KT CAVOK 16/13 Q1012
22:00
V
17 °C 10 km+ - 090° 090° 2 kt METAR LFLW 152000Z AUTO 09002KT CAVOK 17/12 Q1011
21:30
V
19 °C 10 km+ - Var 000° 0 kt METAR LFLW 151930Z AUTO 00000KT CAVOK 19/12 Q1011
21:00
V
21 °C 10 km+ - 240° 240° 2 kt METAR LFLW 151900Z AUTO 24002KT CAVOK 21/11 Q1011
20:30
V
22 °C 10 km+ - 240° 240° 3 kt METAR LFLW 151830Z AUTO 24003KT CAVOK 22/12 Q1011
20:00
V
24 °C 10 km+ - Var Var 1 kt METAR LFLW 151800Z AUTO VRB01KT CAVOK 24/11 Q1011
19:30
V
24 °C 10 km+ - 240° 240° 3 kt METAR LFLW 151730Z AUTO 24003KT 190V310 9999 FEW052 24/12 Q1011
19:00
V
24 °C 10 km+ - Var 000° 0 kt METAR LFLW 151700Z AUTO 00000KT CAVOK 24/11 Q1011 NOSIG
18:30
V
24 °C 10 km+ - 250° 250° 3 kt METAR LFLW 151630Z AUTO 25003KT 160V300 CAVOK 24/11 Q1011 NOSIG
18:00
V
24 °C 10 km+ - Var Var 4 kt METAR LFLW 151600Z AUTO VRB04KT 9999 SCT054 24/11 Q1011 NOSIG
17:30
V
24 °C 10 km+ - Var Var 3 kt METAR LFLW 151530Z AUTO VRB03KT 9999 SCT052 24/11 Q1011 NOSIG
17:00
V
24 °C 10 km+ - Var Var 4 kt METAR LFLW 151500Z AUTO VRB04KT CAVOK 24/11 Q1011 NOSIG
16:30
V
22 °C 10 km+ 5,600 ft Var Var 3 kt METAR LFLW 151430Z AUTO VRB03KT 9999 FEW035 BKN056 22/13 Q1012 NOSIG
16:00
V
22 °C 10 km+ 4,800 ft 320° 320° 4 kt METAR LFLW 151400Z AUTO 32004KT 260V030 9999 SCT033 BKN048 OVC056 22/14 Q1012 NOSIG
15:30
V
21 °C 10 km+ 4,700 ft Var Var 3 kt METAR LFLW 151330Z AUTO VRB03KT 9999 FEW032 SCT039 BKN047 21/13 Q1012 NOSIG
15:00
V
20 °C 10 km+ 4,400 ft 250° 250° 6 kt METAR LFLW 151300Z AUTO 25006KT 220V310 9999 FEW029 BKN044 OVC050 20/14 Q1012 NOSIG
14:30
V
21 °C 10 km+ 3,300 ft 260° 260° 5 kt METAR LFLW 151230Z AUTO 26005KT 210V310 9999 BKN033 OVC042 21/14 Q1012 NOSIG
14:00
V
21 °C 10 km+ 4,700 ft 250° 250° 5 kt METAR LFLW 151200Z AUTO 25005KT 190V310 9999 OVC047 21/12 Q1012 NOSIG
13:30
V
20 °C 10 km+ 4,500 ft 260° 260° 6 kt METAR LFLW 151130Z AUTO 26006KT 220V290 9999 FEW027 OVC045 20/13 Q1012 NOSIG
13:00
V
20 °C 10 km+ 4,400 ft 270° 270° 5 kt METAR LFLW 151100Z AUTO 27005KT 180V350 9999 BKN044 20/13 Q1012 NOSIG
12:30
V
19 °C 10 km+ 3,900 ft 300° 300° 7 kt METAR LFLW 151030Z AUTO 30007KT 260V340 9999 FEW027 OVC039 19/13 Q1012 NOSIG
12:00
M
19 °C 10 km+ 2,900 ft 280° 280° 5 kt METAR LFLW 151000Z AUTO 28005KT 220V330 9999 SCT023 BKN029 BKN041 19/13 Q1012 NOSIG
11:30
M
19 °C 10 km+ 2,000 ft 280° 280° 6 kt METAR LFLW 150930Z AUTO 28006KT 230V330 9999 BKN020 BKN045 19/13 Q1012 NOSIG
11:00
M
17 °C 10 km+ 2,000 ft 250° 250° 5 kt METAR LFLW 150900Z AUTO 25005KT 210V300 9999 BKN020 BKN028 OVC045 17/13 Q1012 NOSIG
10:30
V
17 °C 10 km+ 3,000 ft 270° 270° 5 kt METAR LFLW 150830Z AUTO 27005KT 240V330 9999 FEW017 BKN030 BKN037 17/13 Q1012 NOSIG
10:00
V
17 °C 10 km+ 3,000 ft 250° 250° 4 kt METAR LFLW 150800Z AUTO 25004KT 200V300 9999 SCT015 BKN030 OVC042 17/13 Q1012 TEMPO BKN010
09:30
M
17 °C 10 km+ 1,100 ft 240° 240° 4 kt METAR LFLW 150730Z AUTO 24004KT 180V290 9999 BKN011 BKN024 BKN035 17/13 Q1012 BECMG BKN030
09:00
V
16 °C 10 km+ - Var Var 1 kt METAR LFLW 150700Z AUTO VRB01KT 9999 FEW040 16/14 Q1012 NOSIG
08:30
V
15 °C 10 km+ 3,400 ft Var Var 1 kt METAR LFLW 150630Z AUTO VRB01KT 9999 FEW008 SCT028 BKN034 15/14 Q1012 NOSIG
08:00
M
15 °C 10 km+ 1,400 ft Var 000° 0 kt METAR LFLW 150600Z AUTO 00000KT 9999 BKN014 OVC042 15/14 Q1012 BECMG BKN030
07:30
V
14 °C 10 km+ 4,200 ft Var Var 2 kt METAR LFLW 150530Z AUTO VRB02KT 9999 BKN042 14/13 Q1012 NOSIG
07:00
V
14 °C 10 km+ 4,200 ft 140° 140° 2 kt METAR LFLW 150500Z AUTO 14002KT 9999 FEW024 OVC042 14/14 Q1012
06:30
V
14 °C 10 km+ 4,100 ft Var 000° 0 kt METAR LFLW 150430Z AUTO 00000KT 9999 SCT025 BKN041 OVC230 14/13 Q1012
06:00
V
14 °C 10 km+ 4,100 ft 140° 140° 3 kt METAR LFLW 150400Z AUTO 14003KT 9999 FEW029 BKN041 BKN180 14/13 Q1012
05:30
V
14 °C 10 km+ 4,200 ft Var Var 2 kt METAR LFLW 150330Z AUTO VRB02KT 9999 FEW027 SCT036 BKN042 14/13 Q1012
05:00
V
14 °C 10 km+ 3,200 ft Var Var 2 kt METAR LFLW 150300Z AUTO VRB02KT 9999 SCT026 BKN032 BKN043 14/13 Q1012
04:30
V
14 °C 10 km+ - Var Var 3 kt METAR LFLW 150230Z AUTO VRB03KT 9999 FEW024 SCT046 14/13 Q1012
04:00
V
15 °C 10 km+ 3,500 ft Var Var 1 kt METAR LFLW 150200Z AUTO VRB01KT 9999 SCT013 BKN035 BKN050 15/13 Q1012
03:30
M
15 °C 10 km+ 2,700 ft Var Var 1 kt METAR LFLW 150130Z AUTO VRB01KT 9999 SCT018/// BKN027/// ///CB 15/13 Q1012
03:00
V
15 °C 10 km+ 4,200 ft Var Var 2 kt METAR LFLW 150100Z AUTO VRB02KT 9999 FEW019 SCT032 BKN042 15/13 Q1012
02:30
V
15 °C 10 km+ 5,200 ft Var Var 3 kt METAR LFLW 150030Z AUTO VRB03KT 9999 FEW025 BKN052 15/13 Q1012
02:00
M
15 °C 10 km+ 2,400 ft 090° 090° 5 kt METAR LFLW 150000Z AUTO 09005KT 9999 BKN024 OVC052 15/14 Q1013
01:30
M
15 °C 10 km+ 2,800 ft 120° 120° 3 kt METAR LFLW 142330Z AUTO 12003KT 9999 BKN028/// OVC052/// ///TCU 15/13 Q1013
01:00
M
15 °C 10 km+ 2,800 ft 110° 110° 3 kt METAR LFLW 142300Z AUTO 11003KT 080V150 9999 BKN028 OVC033 15/14 Q1013
00:30
M
14 °C 10 km+ 2,500 ft 130° 130° 2 kt METAR LFLW 142230Z AUTO 13002KT 9999 BKN025 BKN032 14/13 Q1013
00:00
V
14 °C 10 km+ - 120° 120° 4 kt METAR LFLW 142200Z AUTO 12004KT 9999 FEW026 14/13 Q1013

August 14, 2022

Time Code Weather Temp. Visibility Ceiling Wind METAR/SPECI
23:30
V
15 °C 10 km+ - 100° 100° 2 kt METAR LFLW 142130Z AUTO 10002KT 9999 FEW027 15/13 Q1013
23:00
V
16 °C 10 km+ - Var Var 2 kt METAR LFLW 142100Z AUTO VRB02KT 9999 SCT028 16/13 Q1013
22:30
V
17 °C 10 km+ 4,300 ft Var Var 2 kt METAR LFLW 142030Z AUTO VRB02KT 9999 FEW029 BKN043 17/14 Q1013
22:00
V
18 °C 10 km+ 4,100 ft 340° 340° 1 kt METAR LFLW 142000Z AUTO 34001KT 9999 FEW035 BKN041 18/13 Q1013
21:30
V
18 °C 10 km+ - 350° 350° 2 kt METAR LFLW 141930Z AUTO 35002KT 9999 FEW039 18/13 Q1012
21:00
V
19 °C 10 km+ 4,000 ft 320° 320° 3 kt METAR LFLW 141900Z AUTO 32003KT 290V360 9999 BKN040 OVC046 19/13 Q1012
20:30
V
20 °C 10 km+ 4,100 ft 330° 330° 4 kt METAR LFLW 141830Z AUTO 33004KT 280V010 9999 BKN041 20/13 Q1012
20:00
V
20 °C 10 km+ - 340° 340° 6 kt METAR LFLW 141800Z AUTO 34006KT 290V010 9999 FEW034 20/13 Q1012
19:30
V
20 °C 10 km+ 3,400 ft 320° 320° 6 kt METAR LFLW 141730Z AUTO 32006KT 250V360 9999 FEW020 BKN034 BKN042 20/14 Q1012
19:00
V
20 °C 10 km+ - 310° 310° 7 kt METAR LFLW 141700Z AUTO 31007KT 270V350 9999 SCT037 20/15 Q1012 TEMPO SCT015TCU
18:30
V
20 °C 10 km+ 3,700 ft 330° 330° 8 kt METAR LFLW 141630Z AUTO 33008KT 290V360 9999 SCT030 BKN037 20/15 Q1012 TEMPO SCT015TCU
18:00
V
21 °C 10 km+ 3,400 ft 320° 320° 7 kt METAR LFLW 141600Z AUTO 32007KT 280V360 9999 SCT029 BKN034 BKN190 21/14 Q1012 TEMPO SCT015TCU
17:30
V
21 °C 10 km+ - Var Var 3 kt METAR LFLW 141530Z AUTO VRB03KT CAVOK 21/13 Q1012 TEMPO SCT015TCU
17:00
V
20 °C 10 km+ - 110° 110° 4 kt METAR LFLW 141500Z AUTO 11004KT 040V190 CAVOK 20/14 Q1012 TEMPO SCT015TCU
16:30
V
19 °C 10 km+ - 320° 320° 6 kt METAR LFLW 141430Z AUTO 32006KT 270V020 9999 FEW027/// SCT110/// ///TCU 19/14 Q1012 NOSIG
16:00
V
21 °C 10 km+ - 280° 280° 7 kt METAR LFLW 141400Z AUTO 28007KT 230V330 9999 FEW022 SCT028 21/13 Q1013 TEMPO VRB15G35KT 2000 TSRA SCT010 BKN030CB
15:30
M
20 °C 10 km+ 2,000 ft 260° 260° 9 kt METAR LFLW 141330Z AUTO 26009KT 230V320 9999 BKN020 BKN029 20/15 Q1013 TEMPO VRB15G35KT 2000 TSRA SCT010 BKN030CB
15:00
M
20 °C 10 km+ 1,600 ft 280° 280° 8 kt METAR LFLW 141300Z AUTO 28008KT 240V320 9999 BKN016 BKN130 20/16 Q1013 TEMPO VRB15G35KT 2000 TSRA SCT010 BKN030CB
14:30
V
19 °C 10 km+ - Var Var 2 kt METAR LFLW 141230Z AUTO VRB02KT 9999 FEW054 SCT096 19/16 Q1012 TEMPO VRB15G35KT 2000 TSRA SCT010 BKN030CB
14:00
V
17 °C 10 km+ 9,400 ft 040° 040° 8 kt METAR LFLW 141200Z AUTO 04008KT 360V090 9999 FEW016/// OVC094/// ///CB 17/16 Q1013 TEMPO VRB15G35KT 2000 TSRA
13:30
V
17 °C 10 km+ 6,800 ft 290° 290° 3 kt METAR LFLW 141130Z AUTO 29003KT 240V360 9999 TSRA FEW017/// SCT031/// BKN068/// ///CB 17/16 Q1014 TEMPO VRB15G35KT 2000 TSRA
13:00
M
17 °C 10 km+ 2,600 ft 290° 290° 6 kt METAR LFLW 141100Z AUTO 29006KT 9999 +TSRA FEW019/// BKN026/// BKN032/// ///CB 17/16 Q1013 TEMPO VRB15G35KT 2000 TSRA
12:30
V
19 °C 10 km+ 8,600 ft 320° 320° 7 kt METAR LFLW 141030Z AUTO 32007KT 280V350 9999 TSRA FEW023/// SCT068/// BKN086/// ///CB 19/15 Q1013 TEMPO VRB15G35KT 2000 TSRA
12:00
V
21 °C 10 km+ 12,000 ft 300° 300° 10 kt METAR LFLW 141000Z AUTO 30010KT 260V340 9999 FEW031/// BKN120/// ///CB 21/14 Q1012 TEMPO VRB15G35KT 2000 TSRA
11:30
V
22 °C 10 km+ - Var Var 2 kt METAR LFLW 140930Z AUTO VRB02KT CAVOK 22/16 Q1012 TEMPO VRB15G35KT 2000 TSRA SCT010 BKN030CB
11:00
M
20 °C 7 km - 090° 090° 7 kt METAR LFLW 140900Z AUTO 09007KT 060V120 7000 FEW015/// SCT076/// ///CB 20/16 Q1011 TEMPO VRB15G35KT 2000 TSRA
10:30
V
19 °C 10 km+ 7,800 ft 110° 110° 5 kt METAR LFLW 140830Z AUTO 11005KT 070V130 9999 VCTS FEW041/// BKN078/// BKN098/// ///CB 19/15 Q1012 TEMPO VRB15G35KT 2000 TSRA
10:00
V
19 °C 10 km+ 6,600 ft 360° 360° 3 kt METAR LFLW 140800Z AUTO 36003KT 320V020 9999 FEW035/// BKN066/// BKN086/// ///CB 19/15 Q1013 TEMPO 12012KT 2000 TSRA BECMG SCT010 BKN050
09:30
I
18 °C 3.9 km - 100° 100° 5 kt METAR LFLW 140730Z AUTO 10005KT 9999 3900 ///CB 18/15 Q1012 TEMPO 2000 TSRA BECMG 29010KT SCT010 BKN050
09:00
V
18 °C 10 km+ 7,400 ft 050° 050° 6 kt METAR LFLW 140700Z AUTO 05006KT 9999 FEW035/// BKN074/// OVC086/// ///CB 18/15 Q1013 TEMPO 12012KT 2000 TSRA BKN006 SCT045CB
08:30
V
19 °C 10 km+ - 360° 360° 5 kt METAR LFLW 140630Z AUTO 36005KT 280V070 9999 TS ///CB 19/15 Q1013 TEMPO 2000 TSRA BKN006 SCT045CB
08:00
V
18 °C 10 km+ 5,800 ft 310° 310° 4 kt METAR LFLW 140600Z AUTO 31004KT 240V360 9999 TS FEW016/// OVC058/// ///CB 18/17 Q1012 TEMPO 12012KT 2000 TSRA BKN006 SCT045CB
07:30
V
18 °C 10 km+ 6,000 ft 330° 330° 6 kt METAR LFLW 140530Z AUTO 33006KT 290V360 9999 SCT009/// SCT015/// OVC060/// ///CB 18/17 Q1012 TEMPO 12012KT 2000 TSRA BKN006 SCT045CB
07:00
I
18 °C 10 km+ 600 ft 300° 300° 6 kt METAR LFLW 140500Z AUTO 30006KT 250V350 9999 BKN006/// OVC058/// ///CB 18/17 Q1012
06:30
M
18 °C 10 km+ 1,600 ft 300° 300° 5 kt METAR LFLW 140430Z AUTO 30005KT 260V350 9999 SCT007/// BKN016/// BKN056/// ///CB 18/17 Q1012
06:00
M
19 °C 10 km+ 1,100 ft 280° 280° 7 kt METAR LFLW 140400Z AUTO 28007KT 240V310 9999 SCT006 BKN011 BKN058 19/17 Q1011
05:30
V
19 °C 10 km+ - 250° 250° 3 kt METAR LFLW 140330Z AUTO 25003KT 220V280 CAVOK 19/18 Q1011
05:00
V
19 °C 10 km+ 14,000 ft 060° 060° 9 kt METAR LFLW 140300Z AUTO 06009KT 9999 FEW043/// SCT110/// OVC140/// ///CB 19/18 Q1010
04:30
M
20 °C 5 km 9,400 ft 230° 230° 2 kt METAR LFLW 140230Z AUTO 23002KT 5000 RA BR FEW047/// OVC094/// ///CB 20/19 Q1012
04:00
V
20 °C 10 km+ - 020° 020° 3 kt METAR LFLW 140200Z AUTO 02003KT 350V060 9999 ///CB 20/19 Q1011
03:30
V
20 °C 10 km+ 9,600 ft 340° 340° 4 kt METAR LFLW 140130Z AUTO 34004KT 9999 SCT019/// SCT060/// BKN096/// ///CB 20/19 Q1012
03:00
V
21 °C 10 km+ - 340° 340° 4 kt METAR LFLW 140100Z AUTO 34004KT 300V040 9999 -TSRA ///CB 21/18 Q1012
02:30
V
23 °C 10 km+ - 080° 080° 4 kt METAR LFLW 140030Z AUTO 08004KT 9999 ///CB 23/16 Q1012
02:00
V
24 °C 10 km+ - Var Var 4 kt METAR LFLW 140000Z AUTO VRB04KT 9999 -RA ///CB 24/16 Q1012
01:30
V
25 °C 10 km+ - 220° 220° 6 kt METAR LFLW 132330Z AUTO 22006KT 150V260 9999 -RA ///CB 25/15 Q1012
01:00
V
23 °C 10 km+ - Var Var 3 kt METAR LFLW 132300Z AUTO VRB03KT 9999 ///CB 23/11 Q1012
00:30
V
23 °C 10 km+ - 080° 080° 4 kt METAR LFLW 132230Z AUTO 08004KT 9999 ///TCU 23/11 Q1012
00:00
V
23 °C 10 km+ - 100° 100° 4 kt METAR LFLW 132200Z AUTO 10004KT 070V210 CAVOK 23/11 Q1012

August 13, 2022

Time Code Weather Temp. Visibility Ceiling Wind METAR/SPECI
23:30
V
23 °C 10 km+ - 120° 120° 4 kt METAR LFLW 132130Z AUTO 12004KT 070V140 CAVOK 23/11 Q1012
23:00
V
25 °C 10 km+ - 050° 050° 7 kt METAR LFLW 132100Z AUTO 05007KT CAVOK 25/10 Q1012
22:30
V
24 °C 10 km+ - 090° 090° 4 kt METAR LFLW 132030Z AUTO 09004KT CAVOK 24/11 Q1012
22:00
V
25 °C 10 km+ - 110° 110° 3 kt METAR LFLW 132000Z AUTO 11003KT CAVOK 25/11 Q1012
21:30
V
26 °C 10 km+ - 100° 100° 2 kt METAR LFLW 131930Z AUTO 10002KT CAVOK 26/10 Q1012
21:00
V
28 °C 10 km+ - Var 000° 0 kt METAR LFLW 131900Z AUTO 00000KT CAVOK 28/10 Q1012
20:30
V
31 °C 10 km+ - Var Var 1 kt METAR LFLW 131830Z AUTO VRB01KT CAVOK 31/08 Q1012
20:00
V
32 °C 10 km+ - 260° 260° 4 kt METAR LFLW 131800Z AUTO 26004KT 240V300 CAVOK 32/09 Q1012
19:30
V
33 °C 10 km+ - 260° 260° 5 kt METAR LFLW 131730Z AUTO 26005KT 220V310 CAVOK 33/08 Q1012
19:00
V
33 °C 10 km+ - 300° 300° 5 kt METAR LFLW 131700Z AUTO 30005KT 250V350 CAVOK 33/08 Q1012 NOSIG
18:30
V
33 °C 10 km+ - 300° 300° 5 kt METAR LFLW 131630Z AUTO 30005KT 250V350 CAVOK 33/07 Q1012 NOSIG
18:00
V
34 °C 10 km+ - 320° 320° 6 kt METAR LFLW 131600Z AUTO 32006KT 270V360 CAVOK 34/06 Q1012 NOSIG
17:30
V
34 °C 10 km+ - 320° 320° 6 kt METAR LFLW 131530Z AUTO 32006KT 270V020 CAVOK 34/07 Q1013 NOSIG
17:00
V
34 °C 10 km+ - 300° 300° 5 kt METAR LFLW 131500Z AUTO 30005KT 260V360 CAVOK 34/08 Q1013 NOSIG
Older data

We and third parties follow your internet behavior on our website with cookies. If you continue, we assume you agree with our cookie policy. Learn more